Weather forecast for Mishelevka (Мишелевка)

Russia, 412 m
N52.890, E103.197


Sounding

Red line — air temperature ˚C.
Blue line — thermal bubble temperature ˚C.
Green line — dew point temperature ˚C.
Wind speed is in meters per second.

Table forecast

GFS 0.25˚ model

temp. wind gust humid. clouds prec. press. hpbl
Wed18 00:00 7 117.0 ese 3 7 73 0 0.0 1022 147
03:00 6 122.0 ese 3 6 82 16 0.0 1022 109
06:00 6 137.0 se 3 8 83 100 0.0 1020 194
09:00 7 139.0 se 2 4 80 100 0.0 1020 181
12:00 14 295.0 wnw 2 3 60 82 0.0 1019 432
15:00 19 327.0 nnw 4 7 47 76 0.0 1018 1128
18:00 19 345.0 nnw 2 3 50 97 0.0 1017 879
21:00 13 194.0 ssw 2 2 68 62 0.0 1019 23
 
Thu19 00:00 11 14.0 nne 3 5 90 76 0.7 1020 144
03:00 11 299.0 wnw 3 5 87 88 0.8 1021 201
06:00 10 287.0 wnw 2 4 96 100 1.8 1022 232
09:00 10 247.0 wsw 2 4 95 100 3.4 1023 223
12:00 13 246.0 wsw 3 4 80 97 0.3 1023 442
15:00 16 243.0 wsw 4 5 64 86 0.8 1021 761
18:00 17 264.0 w 2 3 57 0 0.0 1020 1091
21:00 12 202.0 ssw 2 3 79 10 0.0 1022 23
 
Fri20 00:00 10 195.0 ssw 2 2 83 11 0.0 1023 22
03:00 9 162.0 sse 2 3 82 11 0.0 1022 30
06:00 8 152.0 sse 2 3 89 11 0.0 1022 30
09:00 9 160.0 sse 3 6 84 46 0.0 1022 155
12:00 15 163.0 sse 3 4 60 68 0.0 1020 284
15:00 20 165.0 sse 3 4 45 50 0.0 1018 695
18:00 21 148.0 sse 3 4 46 0 0.0 1018 921
21:00 14 125.0 se 4 5 64 0 0.0 1018 77
 
Sat21 00:00 12 135.0 se 3 6 70 0 0.0 1019 98
03:00 9 141.0 se 3 6 71 2 0.0 1018 99
06:00 8 131.0 se 3 3 77 0 0.0 1018 56
09:00 9 137.0 se 2 4 80 3 0.0 1018 109
12:00 16 142.0 se 3 3 59 34 0.0 1017 303
15:00 21 143.0 se 3 3 46 53 0.0 1015 435
18:00 22 138.0 se 2 3 46 76 0.0 1016 429
21:00 15 340.0 nnw 4 8 67 67 0.0 1019 133
 
Sun22 00:00 12 349.0 n 7 15 58 37 0.0 1022 534
03:00 11 315.0 nw 4 8 61 66 0.0 1024 332
06:00 9 305.0 nw 3 5 70 100 0.0 1024 101
09:00 10 10.0 n 2 4 69 100 0.0 1024 122
12:00 14 21.0 nne 2 2 55 74 0.0 1024 414
15:00 17 32.0 nne 2 2 49 72 0.0 1022 928
18:00 18 95.0 e 2 2 50 0 0.0 1021 995
21:00 13 73.0 ene 1 2 69 0 0.0 1022 23
 

0.037 s